Time,TemperatureF,DewpointF,PressureIn,WindDirection,WindDirectionDegrees,WindSpeedMPH,WindSpeedGustMPH,Humidity,HourlyPrecipIn,Conditions,Clouds,dailyrainin,SolarRadiationWatts/m^2,SoftwareType,DateUTC
2013-02-27 00:15:00,13.2,5.5,30.87,SE,125,0.0,5.0,71,0.00,CLR,SKC,0.00,0.0,WeatherDisplay:10.37,2013-02-27 07:15:00,
2013-02-27 00:46:00,11.6,4.6,30.88,ESE,122,0.0,1.0,73,0.00,CLR,SKC,0.00,0.0,WeatherDisplay:10.37,2013-02-27 07:46:00,
2013-02-27 01:16:00,11.9,5.2,30.90,ESE,122,1.0,2.0,74,0.00,CLR,SKC,0.00,0.0,WeatherDisplay:10.37,2013-02-27 08:16:00,
2013-02-27 01:46:00,11.0,3.7,30.91,ESE,123,0.0,3.0,72,0.00,CLR,SKC,0.00,0.0,WeatherDisplay:10.37,2013-02-27 08:46:00,
2013-02-27 02:16:00,10.3,3.9,30.92,ESE,123,0.0,1.0,75,0.00,CLR,SKC,0.00,0.0,WeatherDisplay:10.37,2013-02-27 09:16:00,
2013-02-27 02:46:00,9.7,3.4,30.93,ESE,123,0.0,0.0,75,0.00,CLR,SKC,0.00,0.0,WeatherDisplay:10.37,2013-02-27 09:46:00,
2013-02-27 03:16:00,10.5,4.4,30.93,ESE,123,0.0,0.0,76,0.00,CLR,SKC,0.00,0.0,WeatherDisplay:10.37,2013-02-27 10:16:00,
2013-02-27 03:45:00,8.9,2.3,30.93,ESE,123,1.0,2.0,74,0.00,CLR,SKC,0.00,0.0,WeatherDisplay:10.37,2013-02-27 10:45:00,
2013-02-27 04:15:00,7.7,1.9,30.94,ESE,123,0.0,1.0,77,0.00,CLR,SKC,0.00,0.0,WeatherDisplay:10.37,2013-02-27 11:15:00,
2013-02-27 04:45:00,7.3,1.3,30.95,ESE,123,0.0,2.0,76,0.00,CLR,SKC,0.00,0.0,WeatherDisplay:10.37,2013-02-27 11:45:00,
2013-02-27 05:15:00,8.2,3.0,30.96,ESE,123,1.0,1.0,79,0.00,CLR,SKC,0.00,0.0,WeatherDisplay:10.37,2013-02-27 12:15:00,
2013-02-27 05:45:00,7.3,1.0,30.97,ESE,123,2.0,3.0,75,0.00,CLR,SKC,0.00,0.0,WeatherDisplay:10.37,2013-02-27 12:45:00,
2013-02-27 06:15:00,7.3,1.9,30.98,ESE,123,1.0,3.0,78,0.00,CLR,SKC,0.00,0.0,WeatherDisplay:10.37,2013-02-27 13:15:00,
2013-02-27 06:45:00,6.9,1.4,30.98,ESE,123,0.0,1.0,78,0.00,CLR,SKC,0.00,0.0,WeatherDisplay:10.37,2013-02-27 13:45:00,
2013-02-27 07:15:00,6.8,1.7,30.99,ESE,123,0.0,0.0,79,0.00,BKN,SKC,0.00,11.0,WeatherDisplay:10.37,2013-02-27 14:15:00,
2013-02-27 07:45:00,6.7,1.3,31.00,ESE,123,1.0,3.0,78,0.00,BKN,SKC,0.00,72.0,WeatherDisplay:10.37,2013-02-27 14:45:00,
2013-02-27 08:15:00,18.1,10.3,31.01,ESE,123,0.0,0.0,71,0.00,FEW,SKC,0.00,200.0,WeatherDisplay:10.37,2013-02-27 15:15:00,
2013-02-27 08:45:00,15.5,4.1,31.02,ESE,123,0.0,1.0,60,0.00,CLR,SKC,0.00,304.0,WeatherDisplay:10.37,2013-02-27 15:45:00,
2013-02-27 09:15:00,14.5,5.8,31.03,ESE,123,0.0,0.0,68,0.00,CLR,SKC,0.00,396.0,WeatherDisplay:10.37,2013-02-27 16:15:00,
2013-02-27 09:45:00,18.9,9.1,31.04,ESE,123,1.0,3.0,65,0.00,CLR,SKC,0.00,501.0,WeatherDisplay:10.37,2013-02-27 16:45:00,
2013-02-27 10:15:00,19.1,8.2,31.04,ENE,63,1.0,5.0,62,0.00,CLR,SKC,0.00,385.0,WeatherDisplay:10.37,2013-02-27 17:15:00,
2013-02-27 10:45:00,21.0,9.3,31.05,West,264,1.0,3.0,60,0.00,CLR,SKC,0.00,649.0,WeatherDisplay:10.37,2013-02-27 17:45:00,
2013-02-27 11:15:00,21.6,10.9,31.05,WNW,301,1.0,2.0,63,0.00,CLR,SKC,0.00,675.0,WeatherDisplay:10.37,2013-02-27 18:15:00,
2013-02-27 11:45:00,22.3,10.9,31.05,NW,309,1.0,3.0,61,0.00,CLR,SKC,0.00,642.0,WeatherDisplay:10.37,2013-02-27 18:45:00,
2013-02-27 12:15:00,23.2,12.1,31.05,NW,314,0.0,2.0,62,0.00,CLR,SKC,0.00,666.0,WeatherDisplay:10.37,2013-02-27 19:15:00,
2013-02-27 12:45:00,23.7,11.8,31.04,NW,319,1.0,3.0,60,0.00,CLR,SKC,0.00,708.0,WeatherDisplay:10.37,2013-02-27 19:45:00,
2013-02-27 13:15:00,25.1,12.4,31.02,NW,315,2.0,5.0,58,0.00,CLR,SKC,0.00,696.0,WeatherDisplay:10.37,2013-02-27 20:15:00,
2013-02-27 13:45:00,26.1,13.4,31.02,NW,318,1.0,3.0,58,0.00,CLR,SKC,0.00,701.0,WeatherDisplay:10.37,2013-02-27 20:45:00,
2013-02-27 14:15:00,27.1,12.7,31.01,NW,312,1.0,3.0,54,0.00,CLR,SKC,0.00,652.0,WeatherDisplay:10.37,2013-02-27 21:15:00,
2013-02-27 14:45:00,27.6,13.5,31.01,NW,313,2.0,3.0,55,0.00,CLR,SKC,0.00,587.0,WeatherDisplay:10.37,2013-02-27 21:45:00,
2013-02-27 15:15:00,28.8,9.6,31.01,NW,314,1.0,3.0,44,0.00,CLR,SKC,0.00,513.0,WeatherDisplay:10.37,2013-02-27 22:15:00,
2013-02-27 15:45:00,29.1,10.4,31.02,NW,321,2.0,4.0,45,0.00,CLR,SKC,0.00,325.0,WeatherDisplay:10.37,2013-02-27 22:45:00,
2013-02-27 16:15:00,29.3,9.6,31.01,NW,321,2.0,2.0,43,0.00,CLR,SKC,0.00,338.0,WeatherDisplay:10.37,2013-02-27 23:15:00,
2013-02-27 16:45:00,29.1,9.9,31.02,NW,321,0.0,2.0,44,0.00,CLR,SKC,0.00,229.0,WeatherDisplay:10.37,2013-02-27 23:45:00,
2013-02-27 17:15:00,29.2,9.5,31.02,NW,320,0.0,1.0,43,0.00,CLR,SKC,0.00,105.0,WeatherDisplay:10.37,2013-02-28 00:15:00,
2013-02-27 17:45:00,28.7,9.5,31.03,NW,320,0.0,0.0,44,0.00,BKN,SKC,0.00,23.0,WeatherDisplay:10.37,2013-02-28 00:45:00,
2013-02-27 18:15:00,26.3,9.7,31.02,NW,320,0.0,0.0,49,0.00,OVC,SKC,0.00,5.0,WeatherDisplay:10.37,2013-02-28 01:15:00,
2013-02-27 18:45:00,21.8,8.4,31.02,NW,320,2.0,3.0,56,0.00,OVC,SKC,0.00,0.0,WeatherDisplay:10.37,2013-02-28 01:45:00,
2013-02-27 19:15:00,18.5,7.7,31.02,ENE,78,1.0,3.0,62,0.00,CLR,SKC,0.00,0.0,WeatherDisplay:10.37,2013-02-28 02:15:00,
2013-02-27 19:45:00,18.7,8.8,31.02,ESE,111,0.0,1.0,65,0.00,CLR,SKC,0.00,0.0,WeatherDisplay:10.37,2013-02-28 02:45:00,
2013-02-27 20:15:00,18.7,8.8,31.03,ESE,112,0.0,1.0,65,0.00,CLR,SKC,0.00,0.0,WeatherDisplay:10.37,2013-02-28 03:15:00,
2013-02-27 20:45:00,17.0,7.9,31.03,ESE,112,1.0,2.0,67,0.00,CLR,SKC,0.00,0.0,WeatherDisplay:10.37,2013-02-28 03:45:00,
2013-02-27 21:15:00,16.0,7.3,31.05,ESE,112,0.0,1.0,68,0.00,CLR,SKC,0.00,0.0,WeatherDisplay:10.37,2013-02-28 04:15:00,
2013-02-27 21:45:00,15.9,7.2,31.06,ESE,111,2.0,3.0,68,0.00,CLR,SKC,0.00,0.0,WeatherDisplay:10.37,2013-02-28 04:45:00,
2013-02-27 22:15:00,16.7,8.0,31.06,ESE,102,2.0,3.0,68,0.00,CLR,SKC,0.00,0.0,WeatherDisplay:10.37,2013-02-28 05:15:00,
2013-02-27 22:45:00,16.7,8.2,31.07,ESE,102,0.0,1.0,69,0.00,CLR,SKC,0.00,0.0,WeatherDisplay:10.37,2013-02-28 05:45:00,
2013-02-27 23:15:00,14.1,6.1,31.08,ESE,102,1.0,3.0,70,0.00,CLR,SKC,0.00,0.0,WeatherDisplay:10.37,2013-02-28 06:15:00,
2013-02-27 23:45:00,14.5,7.1,31.08,ESE,102,0.0,1.0,72,0.00,CLR,SKC,0.00,0.0,WeatherDisplay:10.37,2013-02-28 06:45:00,